sensor_id;sensor_type;location;lat;lon;timestamp;pressure;altitude;pressure_sealevel;temperature;humidity
69411;BME280;56604;48.652;9.194;2023-03-19T00:01:15;95955.41;;;11.16;58.89
69411;BME280;56604;48.652;9.194;2023-03-19T00:03:41;95958.56;;;11.13;59.30
69411;BME280;56604;48.652;9.194;2023-03-19T00:06:06;95951.44;;;11.14;59.65
69411;BME280;56604;48.652;9.194;2023-03-19T00:08:32;95954.59;;;11.11;59.58
69411;BME280;56604;48.652;9.194;2023-03-19T00:10:57;95960.91;;;11.05;59.85
69411;BME280;56604;48.652;9.194;2023-03-19T00:13:23;95960.91;;;11.15;60.10
69411;BME280;56604;48.652;9.194;2023-03-19T00:15:48;95956.16;;;11.01;60.30
69411;BME280;56604;48.652;9.194;2023-03-19T00:18:13;95958.50;;;11.03;60.38
69411;BME280;56604;48.652;9.194;2023-03-19T00:20:39;95953.75;;;11.00;60.58
69411;BME280;56604;48.652;9.194;2023-03-19T00:23:04;95953.72;;;10.90;60.97
69411;BME280;56604;48.652;9.194;2023-03-19T00:25:30;95953.72;;;10.90;61.36
69411;BME280;56604;48.652;9.194;2023-03-19T00:27:56;95960.00;;;10.84;61.29
69411;BME280;56604;48.652;9.194;2023-03-19T00:30:22;95958.44;;;10.83;61.39
69411;BME280;56604;48.652;9.194;2023-03-19T00:32:48;95962.13;;;10.82;60.96
69411;BME280;56604;48.652;9.194;2023-03-19T00:35:13;95953.69;;;10.79;60.78
69411;BME280;56604;48.652;9.194;2023-03-19T00:37:39;95960.53;;;10.80;61.16
69411;BME280;56604;48.652;9.194;2023-03-19T00:40:05;95968.38;;;10.75;61.07
69411;BME280;56604;48.652;9.194;2023-03-19T00:42:31;95960.25;;;10.77;60.43
69411;BME280;56604;48.652;9.194;2023-03-19T00:44:56;95964.19;;;10.74;60.44
69411;BME280;56604;48.652;9.194;2023-03-19T00:47:22;95965.25;;;10.78;60.47
69411;BME280;56604;48.652;9.194;2023-03-19T00:49:48;95967.91;;;10.84;59.96
69411;BME280;56604;48.652;9.194;2023-03-19T00:52:13;95971.09;;;10.91;59.90
69411;BME280;56604;48.652;9.194;2023-03-19T00:54:38;95955.59;;;10.94;59.57
69411;BME280;56604;48.652;9.194;2023-03-19T00:57:04;95966.13;;;10.99;59.32
69411;BME280;56604;48.652;9.194;2023-03-19T00:59:30;95972.72;;;11.02;59.90
69411;BME280;56604;48.652;9.194;2023-03-19T01:01:55;95969.59;;;11.10;58.77
69411;BME280;56604;48.652;9.194;2023-03-19T01:04:20;95973.03;;;11.16;58.58
69411;BME280;56604;48.652;9.194;2023-03-19T01:06:47;95971.44;;;11.15;59.31
69411;BME280;56604;48.652;9.194;2023-03-19T01:09:12;95975.66;;;11.11;59.46
69411;BME280;56604;48.652;9.194;2023-03-19T01:11:38;95976.97;;;11.13;59.56
69411;BME280;56604;48.652;9.194;2023-03-19T01:14:03;95986.38;;;11.04;60.03
69411;BME280;56604;48.652;9.194;2023-03-19T01:16:28;95987.72;;;11.01;60.38
69411;BME280;56604;48.652;9.194;2023-03-19T01:18:53;95994.25;;;10.94;60.86
69411;BME280;56604;48.652;9.194;2023-03-19T01:21:19;95997.38;;;10.86;61.55
69411;BME280;56604;48.652;9.194;2023-03-19T01:23:45;95995.50;;;10.76;61.50
69411;BME280;56604;48.652;9.194;2023-03-19T01:26:10;96002.59;;;10.80;60.03
69411;BME280;56604;48.652;9.194;2023-03-19T01:28:37;96008.44;;;10.88;57.18
69411;BME280;56604;48.652;9.194;2023-03-19T01:31:06;96010.00;;;10.89;56.47
69411;BME280;56604;48.652;9.194;2023-03-19T01:33:31;96020.00;;;10.92;56.53
69411;BME280;56604;48.652;9.194;2023-03-19T01:35:57;96015.00;;;10.85;56.51
69411;BME280;56604;48.652;9.194;2023-03-19T01:38:27;96019.97;;;10.87;56.46
69411;BME280;56604;48.652;9.194;2023-03-19T01:40:52;96025.72;;;10.78;56.52
69411;BME280;56604;48.652;9.194;2023-03-19T01:43:23;96022.84;;;10.80;56.75
69411;BME280;56604;48.652;9.194;2023-03-19T01:45:51;96028.88;;;10.75;57.44
69411;BME280;56604;48.652;9.194;2023-03-19T01:48:26;96023.09;;;10.73;57.80
69411;BME280;56604;48.652;9.194;2023-03-19T01:50:52;96020.44;;;10.68;58.22
69411;BME280;56604;48.652;9.194;2023-03-19T01:53:22;96022.50;;;10.66;58.72
69411;BME280;56604;48.652;9.194;2023-03-19T01:55:49;96022.53;;;10.71;60.37
69411;BME280;56604;48.652;9.194;2023-03-19T01:58:15;96028.84;;;10.70;61.18
69411;BME280;56604;48.652;9.194;2023-03-19T02:00:41;96020.44;;;10.68;62.18
69411;BME280;56604;48.652;9.194;2023-03-19T02:03:06;96025.91;;;10.62;63.53
69411;BME280;56604;48.652;9.194;2023-03-19T02:05:33;96028.25;;;10.58;65.72
69411;BME280;56604;48.652;9.194;2023-03-19T02:08:02;96034.56;;;10.57;66.35
69411;BME280;56604;48.652;9.194;2023-03-19T02:10:29;96026.91;;;10.50;67.97
69411;BME280;56604;48.652;9.194;2023-03-19T02:12:55;96031.03;;;10.41;68.95
69411;BME280;56604;48.652;9.194;2023-03-19T02:15:20;96023.41;;;10.40;70.37
69411;BME280;56604;48.652;9.194;2023-03-19T02:17:46;96030.19;;;10.35;71.58
69411;BME280;56604;48.652;9.194;2023-03-19T02:23:13;96037.56;;;10.33;73.07
69411;BME280;56604;48.652;9.194;2023-03-19T02:28:09;96032.81;;;10.35;74.11
69411;BME280;56604;48.652;9.194;2023-03-19T02:30:35;96035.44;;;10.35;74.27
69411;BME280;56604;48.652;9.194;2023-03-19T02:33:01;96041.47;;;10.31;75.14
69411;BME280;56604;48.652;9.194;2023-03-19T02:35:30;96035.91;;;10.27;76.20
69411;BME280;56604;48.652;9.194;2023-03-19T02:37:56;96032.72;;;10.25;77.59
69411;BME280;56604;48.652;9.194;2023-03-19T02:40:25;96031.06;;;10.14;78.73
69411;BME280;56604;48.652;9.194;2023-03-19T02:42:53;96042.13;;;10.16;79.81
69411;BME280;56604;48.652;9.194;2023-03-19T02:45:18;96038.41;;;10.12;79.86
69411;BME280;56604;48.652;9.194;2023-03-19T02:47:43;96035.81;;;10.17;81.88
69411;BME280;56604;48.652;9.194;2023-03-19T02:50:09;96040.81;;;10.19;82.15
69411;BME280;56604;48.652;9.194;2023-03-19T02:52:34;96033.75;;;10.24;83.04
69411;BME280;56604;48.652;9.194;2023-03-19T02:55:00;96032.19;;;10.23;81.50
69411;BME280;56604;48.652;9.194;2023-03-19T02:57:26;96031.13;;;10.24;82.93
69411;BME280;56604;48.652;9.194;2023-03-19T02:59:51;96031.41;;;10.23;80.43
69411;BME280;56604;48.652;9.194;2023-03-19T03:02:16;96039.97;;;10.13;79.34
69411;BME280;56604;48.652;9.194;2023-03-19T03:04:42;96044.28;;;9.92;81.45
69411;BME280;56604;48.652;9.194;2023-03-19T03:07:07;96044.56;;;9.96;83.63
69411;BME280;56604;48.652;9.194;2023-03-19T03:09:33;96045.97;;;9.76;84.59
69411;BME280;56604;48.652;9.194;2023-03-19T03:11:59;96056.94;;;9.73;83.88
69411;BME280;56604;48.652;9.194;2023-03-19T03:14:24;96060.06;;;9.70;84.36
69411;BME280;56604;48.652;9.194;2023-03-19T03:16:50;96058.22;;;9.65;84.21
69411;BME280;56604;48.652;9.194;2023-03-19T03:19:15;96061.06;;;9.64;84.10
69411;BME280;56604;48.652;9.194;2023-03-19T03:21:41;96064.31;;;9.71;82.98
69411;BME280;56604;48.652;9.194;2023-03-19T03:24:07;96060.91;;;9.71;83.39
69411;BME280;56604;48.652;9.194;2023-03-19T03:26:33;96050.13;;;9.72;82.99
69411;BME280;56604;48.652;9.194;2023-03-19T03:29:00;96046.88;;;9.60;82.53
69411;BME280;56604;48.652;9.194;2023-03-19T03:31:25;96043.75;;;9.63;83.31
69411;BME280;56604;48.652;9.194;2023-03-19T03:33:51;96043.19;;;9.61;83.48
69411;BME280;56604;48.652;9.194;2023-03-19T03:36:16;96040.50;;;9.56;81.25
69411;BME280;56604;48.652;9.194;2023-03-19T03:38:42;96043.75;;;9.63;80.71
69411;BME280;56604;48.652;9.194;2023-03-19T03:41:08;96044.88;;;9.72;80.67
69411;BME280;56604;48.652;9.194;2023-03-19T03:43:34;96046.44;;;9.68;79.62
69411;BME280;56604;48.652;9.194;2023-03-19T03:45:59;96045.16;;;9.76;80.48
69411;BME280;56604;48.652;9.194;2023-03-19T03:48:24;96057.56;;;9.80;79.29
69411;BME280;56604;48.652;9.194;2023-03-19T03:50:50;96056.78;;;9.80;78.92
69411;BME280;56604;48.652;9.194;2023-03-19T03:53:15;96059.13;;;9.81;79.64
69411;BME280;56604;48.652;9.194;2023-03-19T03:55:41;96061.72;;;9.76;78.38
69411;BME280;56604;48.652;9.194;2023-03-19T03:58:06;96063.31;;;9.77;77.88
69411;BME280;56604;48.652;9.194;2023-03-19T04:00:32;96058.56;;;9.74;79.14
69411;BME280;56604;48.652;9.194;2023-03-19T04:02:57;96059.09;;;9.76;78.51
69411;BME280;56604;48.652;9.194;2023-03-19T04:05:24;96060.56;;;9.67;77.67
69411;BME280;56604;48.652;9.194;2023-03-19T04:07:50;96064.88;;;9.78;77.68
69411;BME280;56604;48.652;9.194;2023-03-19T04:10:16;96065.38;;;9.75;77.71
69411;BME280;56604;48.652;9.194;2023-03-19T04:12:41;96059.09;;;9.76;78.07
69411;BME280;56604;48.652;9.194;2023-03-19T04:15:08;96066.28;;;9.86;78.46
69411;BME280;56604;48.652;9.194;2023-03-19T04:17:35;96062.09;;;9.85;77.61
69411;BME280;56604;48.652;9.194;2023-03-19T04:20:01;96063.38;;;9.82;77.00
69411;BME280;56604;48.652;9.194;2023-03-19T04:22:29;96063.03;;;9.79;77.66
69411;BME280;56604;48.652;9.194;2023-03-19T04:24:54;96069.13;;;9.84;77.06
69411;BME280;56604;48.652;9.194;2023-03-19T04:27:20;96065.66;;;9.79;77.16
69411;BME280;56604;48.652;9.194;2023-03-19T04:29:45;96068.34;;;9.84;76.49
69411;BME280;56604;48.652;9.194;2023-03-19T04:32:11;96078.56;;;9.80;77.24
69411;BME280;56604;48.652;9.194;2023-03-19T04:34:36;96075.31;;;9.73;77.40
69411;BME280;56604;48.652;9.194;2023-03-19T04:37:01;96076.16;;;9.79;77.13
69411;BME280;56604;48.652;9.194;2023-03-19T04:39:27;96078.56;;;9.80;77.09
69411;BME280;56604;48.652;9.194;2023-03-19T04:41:52;96078.06;;;9.83;76.80
69411;BME280;56604;48.652;9.194;2023-03-19T04:44:18;96080.97;;;9.82;77.14
69411;BME280;56604;48.652;9.194;2023-03-19T04:46:43;96074.31;;;9.74;77.88
69411;BME280;56604;48.652;9.194;2023-03-19T04:49:10;96078.44;;;9.70;77.34
69411;BME280;56604;48.652;9.194;2023-03-19T04:51:35;96076.88;;;9.69;77.46
69411;BME280;56604;48.652;9.194;2023-03-19T04:54:00;96083.53;;;9.77;76.63
69411;BME280;56604;48.652;9.194;2023-03-19T04:56:26;96082.75;;;9.76;76.42
69411;BME280;56604;48.652;9.194;2023-03-19T04:58:52;96086.94;;;9.77;76.05
69411;BME280;56604;48.652;9.194;2023-03-19T05:01:17;96087.38;;;9.69;76.73
69411;BME280;56604;48.652;9.194;2023-03-19T05:03:43;96093.75;;;9.78;76.93
69411;BME280;56604;48.652;9.194;2023-03-19T05:06:08;96092.63;;;9.69;76.88
69411;BME280;56604;48.652;9.194;2023-03-19T05:08:34;96097.31;;;9.67;77.33
69411;BME280;56604;48.652;9.194;2023-03-19T05:10:59;96098.94;;;9.68;77.25
69411;BME280;56604;48.652;9.194;2023-03-19T05:13:25;96101.72;;;9.61;77.54
69411;BME280;56604;48.652;9.194;2023-03-19T05:15:52;96097.53;;;9.60;76.92
69411;BME280;56604;48.652;9.194;2023-03-19T05:18:19;96110.84;;;9.54;78.11
69411;BME280;56604;48.652;9.194;2023-03-19T05:20:44;96111.69;;;9.59;78.88
69411;BME280;56604;48.652;9.194;2023-03-19T05:23:09;96115.03;;;9.55;78.34
69411;BME280;56604;48.652;9.194;2023-03-19T05:25:35;96116.25;;;9.47;78.74
69411;BME280;56604;48.652;9.194;2023-03-19T05:28:01;96117.91;;;9.53;77.84
69411;BME280;56604;48.652;9.194;2023-03-19T05:30:26;96122.25;;;9.42;78.70
69411;BME280;56604;48.652;9.194;2023-03-19T05:32:52;96119.13;;;9.45;78.86
69411;BME280;56604;48.652;9.194;2023-03-19T05:35:17;96111.25;;;9.45;79.30
69411;BME280;56604;48.652;9.194;2023-03-19T05:37:43;96107.66;;;9.52;77.04
69411;BME280;56604;48.652;9.194;2023-03-19T05:40:10;96107.09;;;9.50;76.22
69411;BME280;56604;48.652;9.194;2023-03-19T05:42:36;96114.47;;;9.53;75.83
69411;BME280;56604;48.652;9.194;2023-03-19T05:45:02;96110.84;;;9.54;76.50
69411;BME280;56604;48.652;9.194;2023-03-19T05:47:29;96110.28;;;9.52;77.03
69411;BME280;56604;48.652;9.194;2023-03-19T05:49:55;96110.47;;;9.45;76.48
69411;BME280;56604;48.652;9.194;2023-03-19T05:52:20;96115.47;;;9.46;77.43
69411;BME280;56604;48.652;9.194;2023-03-19T05:54:46;96117.66;;;9.55;76.56
69411;BME280;56604;48.652;9.194;2023-03-19T05:57:14;96125.75;;;9.53;76.55
69411;BME280;56604;48.652;9.194;2023-03-19T05:59:40;96134.50;;;9.59;75.33
69411;BME280;56604;48.652;9.194;2023-03-19T06:02:05;96135.47;;;9.53;75.24
69411;BME280;56604;48.652;9.194;2023-03-19T06:04:31;96135.59;;;9.63;75.21
69411;BME280;56604;48.652;9.194;2023-03-19T06:06:56;96138.72;;;9.60;76.03
69411;BME280;56604;48.652;9.194;2023-03-19T06:09:22;96142.31;;;9.54;76.18
69411;BME280;56604;48.652;9.194;2023-03-19T06:11:47;96153.13;;;9.57;75.86
69411;BME280;56604;48.652;9.194;2023-03-19T06:14:13;96141.84;;;9.57;76.31
69411;BME280;56604;48.652;9.194;2023-03-19T06:16:38;96151.84;;;9.60;76.44
69411;BME280;56604;48.652;9.194;2023-03-19T06:19:03;96152.34;;;9.57;75.86
69411;BME280;56604;48.652;9.194;2023-03-19T06:21:28;96150.56;;;9.62;75.08
69411;BME280;56604;48.652;9.194;2023-03-19T06:23:55;96161.38;;;9.66;75.77
69411;BME280;56604;48.652;9.194;2023-03-19T06:26:21;96151.94;;;9.70;75.28
69411;BME280;56604;48.652;9.194;2023-03-19T06:28:47;96149.88;;;9.72;74.84
69411;BME280;56604;48.652;9.194;2023-03-19T06:31:12;96162.56;;;9.80;73.20
69411;BME280;56604;48.652;9.194;2023-03-19T06:33:38;96162.09;;;9.83;72.94
69411;BME280;56604;48.652;9.194;2023-03-19T06:36:03;96159.53;;;9.88;73.67
69411;BME280;56604;48.652;9.194;2023-03-19T06:38:29;96170.50;;;9.85;74.68
69411;BME280;56604;48.652;9.194;2023-03-19T06:40:54;96165.75;;;9.82;74.92
69411;BME280;56604;48.652;9.194;2023-03-19T06:43:19;96159.94;;;10.02;74.89
69411;BME280;56604;48.652;9.194;2023-03-19T06:45:45;96165.47;;;10.06;75.14
69411;BME280;56604;48.652;9.194;2023-03-19T06:48:11;96159.53;;;10.16;75.48
69411;BME280;56604;48.652;9.194;2023-03-19T06:50:36;96153.47;;;10.15;74.62
69411;BME280;56604;48.652;9.194;2023-03-19T06:53:01;96156.03;;;10.10;75.60
69411;BME280;56604;48.652;9.194;2023-03-19T06:55:27;96156.09;;;10.15;74.94
69411;BME280;56604;48.652;9.194;2023-03-19T06:57:53;96160.16;;;10.01;73.31
69411;BME280;56604;48.652;9.194;2023-03-19T07:00:19;96153.06;;;10.01;72.70
69411;BME280;56604;48.652;9.194;2023-03-19T07:02:44;96149.22;;;10.09;71.82
69411;BME280;56604;48.652;9.194;2023-03-19T07:05:10;96145.16;;;10.23;71.12
69411;BME280;56604;48.652;9.194;2023-03-19T07:07:35;96143.16;;;10.30;69.73
69411;BME280;56604;48.652;9.194;2023-03-19T07:10:00;96151.06;;;10.35;70.21
69411;BME280;56604;48.652;9.194;2023-03-19T07:12:26;96149.59;;;10.45;69.69
69411;BME280;56604;48.652;9.194;2023-03-19T07:14:53;96158.31;;;10.50;69.21
69411;BME280;56604;48.652;9.194;2023-03-19T07:17:20;96158.00;;;10.79;69.14
69411;BME280;56604;48.652;9.194;2023-03-19T07:19:45;96167.81;;;10.56;70.18
69411;BME280;56604;48.652;9.194;2023-03-19T07:22:11;96161.38;;;10.74;70.10
69411;BME280;56604;48.652;9.194;2023-03-19T07:24:36;96160.81;;;10.67;70.52
69411;BME280;56604;48.652;9.194;2023-03-19T07:27:01;96161.94;;;10.76;70.80
69411;BME280;56604;48.652;9.194;2023-03-19T07:29:27;96162.91;;;10.65;70.32
69411;BME280;56604;48.652;9.194;2023-03-19T07:31:52;96172.31;;;10.61;71.54
69411;BME280;56604;48.652;9.194;2023-03-19T07:34:17;96172.19;;;10.78;71.27
69411;BME280;56604;48.652;9.194;2023-03-19T07:36:43;96170.31;;;10.73;71.26
69411;BME280;56604;48.652;9.194;2023-03-19T07:39:08;96170.38;;;10.84;71.01
69411;BME280;56604;48.652;9.194;2023-03-19T07:41:34;96170.19;;;10.90;69.94
69411;BME280;56604;48.652;9.194;2023-03-19T07:43:59;96174.06;;;10.83;71.31
69411;BME280;56604;48.652;9.194;2023-03-19T07:46:25;96172.50;;;10.87;70.40
69411;BME280;56604;48.652;9.194;2023-03-19T07:48:50;96171.47;;;10.88;70.25
69411;BME280;56604;48.652;9.194;2023-03-19T07:51:15;96171.72;;;10.86;69.71
69411;BME280;56604;48.652;9.194;2023-03-19T07:53:41;96173.66;;;11.01;69.53
69411;BME280;56604;48.652;9.194;2023-03-19T07:56:06;96174.22;;;11.03;69.17
69411;BME280;56604;48.652;9.194;2023-03-19T07:58:31;96176.06;;;11.02;69.70
69411;BME280;56604;48.652;9.194;2023-03-19T08:00:57;96171.19;;;11.21;68.57
69411;BME280;56604;48.652;9.194;2023-03-19T08:03:25;96177.06;;;11.39;68.24
69411;BME280;56604;48.652;9.194;2023-03-19T08:05:50;96176.53;;;11.37;68.76
69411;BME280;56604;48.652;9.194;2023-03-19T08:08:16;96174.16;;;11.40;68.46
69411;BME280;56604;48.652;9.194;2023-03-19T08:10:42;96176.53;;;11.37;68.14
69411;BME280;56604;48.652;9.194;2023-03-19T08:13:07;96178.09;;;11.38;67.77
69411;BME280;56604;48.652;9.194;2023-03-19T08:15:33;96179.50;;;11.51;67.07
69411;BME280;56604;48.652;9.194;2023-03-19T08:17:59;96179.53;;;11.56;67.58
69411;BME280;56604;48.652;9.194;2023-03-19T08:20:25;96174.56;;;11.64;67.29
69411;BME280;56604;48.652;9.194;2023-03-19T08:22:51;96181.94;;;11.67;67.47
69411;BME280;56604;48.652;9.194;2023-03-19T08:25:16;96179.34;;;11.78;66.33
69411;BME280;56604;48.652;9.194;2023-03-19T08:27:42;96178.25;;;11.68;66.78
69411;BME280;56604;48.652;9.194;2023-03-19T08:30:08;96173.84;;;11.84;67.54
69411;BME280;56604;48.652;9.194;2023-03-19T08:32:34;96175.75;;;11.99;66.98
69411;BME280;56604;48.652;9.194;2023-03-19T08:35:00;96170.50;;;11.99;66.26
69411;BME280;56604;48.652;9.194;2023-03-19T08:37:25;96172.25;;;11.83;66.92
69411;BME280;56604;48.652;9.194;2023-03-19T08:39:51;96174.16;;;11.93;67.01
69411;BME280;56604;48.652;9.194;2023-03-19T08:42:17;96175.31;;;12.33;66.04
69411;BME280;56604;48.652;9.194;2023-03-19T08:44:43;96177.16;;;12.27;65.45
69411;BME280;56604;48.652;9.194;2023-03-19T08:47:08;96176.31;;;12.01;65.75
69411;BME280;56604;48.652;9.194;2023-03-19T08:49:34;96179.22;;;12.20;65.16
69411;BME280;56604;48.652;9.194;2023-03-19T08:51:59;96173.19;;;12.35;64.30
69411;BME280;56604;48.652;9.194;2023-03-19T08:54:25;96183.22;;;12.43;64.66
69411;BME280;56604;48.652;9.194;2023-03-19T08:56:50;96177.44;;;12.56;64.70
69411;BME280;56604;48.652;9.194;2023-03-19T08:59:16;96177.97;;;12.74;63.96
69411;BME280;56604;48.652;9.194;2023-03-19T09:01:41;96177.47;;;12.87;63.13
69411;BME280;56604;48.652;9.194;2023-03-19T09:04:06;96177.44;;;12.97;62.88
69411;BME280;56604;48.652;9.194;2023-03-19T09:06:31;96180.59;;;13.10;63.93
69411;BME280;56604;48.652;9.194;2023-03-19T09:08:57;96185.06;;;13.40;63.25
69411;BME280;56604;48.652;9.194;2023-03-19T09:11:22;96180.31;;;13.42;62.20
69411;BME280;56604;48.652;9.194;2023-03-19T09:13:47;96188.00;;;13.33;62.11
69411;BME280;56604;48.652;9.194;2023-03-19T09:16:13;96187.97;;;13.38;62.22
69411;BME280;56604;48.652;9.194;2023-03-19T09:18:39;96191.66;;;13.42;61.37
69411;BME280;56604;48.652;9.194;2023-03-19T09:21:04;96185.66;;;13.97;60.82
69411;BME280;56604;48.652;9.194;2023-03-19T09:23:30;96187.34;;;14.32;59.83
69411;BME280;56604;48.652;9.194;2023-03-19T09:25:55;96181.72;;;14.38;57.17
69411;BME280;56604;48.652;9.194;2023-03-19T09:28:21;96181.06;;;14.62;56.46
69411;BME280;56604;48.652;9.194;2023-03-19T09:30:47;96176.94;;;15.14;55.46
69411;BME280;56604;48.652;9.194;2023-03-19T09:33:16;96180.31;;;15.49;54.73
69411;BME280;56604;48.652;9.194;2023-03-19T09:35:42;96184.25;;;16.18;53.96
69411;BME280;56604;48.652;9.194;2023-03-19T09:38:08;96186.84;;;16.24;51.80
69411;BME280;56604;48.652;9.194;2023-03-19T09:40:45;96183.28;;;16.52;50.84
69411;BME280;56604;48.652;9.194;2023-03-19T09:45:37;96175.00;;;16.92;51.33
69411;BME280;56604;48.652;9.194;2023-03-19T09:48:06;96176.41;;;17.03;49.88
69411;BME280;56604;48.652;9.194;2023-03-19T09:50:32;96175.03;;;17.05;49.29
69411;BME280;56604;48.652;9.194;2023-03-19T09:53:19;96159.13;;;17.33;49.48
69411;BME280;56604;48.652;9.194;2023-03-19T09:55:49;96166.25;;;17.51;48.17
69411;BME280;56604;48.652;9.194;2023-03-19T10:00:47;96170.16;;;17.40;49.26
69411;BME280;56604;48.652;9.194;2023-03-19T10:03:59;96171.72;;;17.27;48.21
69411;BME280;56604;48.652;9.194;2023-03-19T10:06:29;96167.81;;;17.52;47.80
69411;BME280;56604;48.652;9.194;2023-03-19T10:14:47;96166.03;;;16.69;48.20
69411;BME280;56604;48.652;9.194;2023-03-19T10:17:19;96158.00;;;16.74;48.05
69411;BME280;56604;48.652;9.194;2023-03-19T10:19:51;96157.94;;;16.79;47.13
69411;BME280;56604;48.652;9.194;2023-03-19T10:22:21;96163.59;;;16.72;48.20
69411;BME280;56604;48.652;9.194;2023-03-19T10:24:49;96150.78;;;17.53;46.22
69411;BME280;56604;48.652;9.194;2023-03-19T10:27:20;96148.50;;;17.61;45.80
69411;BME280;56604;48.652;9.194;2023-03-19T10:29:45;96154.03;;;17.78;45.70
69411;BME280;56604;48.652;9.194;2023-03-19T10:32:18;96155.16;;;18.27;45.62
69411;BME280;56604;48.652;9.194;2023-03-19T10:34:53;96147.44;;;17.89;42.93
69411;BME280;56604;48.652;9.194;2023-03-19T10:37:19;96152.53;;;17.58;44.26
69411;BME280;56604;48.652;9.194;2023-03-19T10:39:47;96140.19;;;18.17;43.61
69411;BME280;56604;48.652;9.194;2023-03-19T10:42:30;96139.78;;;18.47;43.31
69411;BME280;56604;48.652;9.194;2023-03-19T10:47:38;96144.56;;;17.44;45.58
69411;BME280;56604;48.652;9.194;2023-03-19T10:50:04;96135.31;;;17.56;43.92
69411;BME280;56604;48.652;9.194;2023-03-19T10:52:35;96138.66;;;17.61;43.35
69411;BME280;56604;48.652;9.194;2023-03-19T10:55:04;96137.50;;;17.53;43.61
69411;BME280;56604;48.652;9.194;2023-03-19T10:57:31;96134.44;;;17.46;42.83
69411;BME280;56604;48.652;9.194;2023-03-19T11:00:02;96136.91;;;17.43;44.56
69411;BME280;56604;48.652;9.194;2023-03-19T11:02:30;96130.59;;;17.94;44.36
69411;BME280;56604;48.652;9.194;2023-03-19T11:07:37;96130.50;;;17.85;43.00
69411;BME280;56604;48.652;9.194;2023-03-19T11:10:03;96127.69;;;18.40;42.23
69411;BME280;56604;48.652;9.194;2023-03-19T11:12:33;96133.28;;;18.53;41.20
69411;BME280;56604;48.652;9.194;2023-03-19T11:14:59;96126.97;;;18.49;40.74
69411;BME280;56604;48.652;9.194;2023-03-19T11:17:45;96134.19;;;18.12;41.24
69411;BME280;56604;48.652;9.194;2023-03-19T11:20:26;96123.81;;;18.47;41.56
69411;BME280;56604;48.652;9.194;2023-03-19T11:22:53;96130.19;;;18.59;41.45
69411;BME280;56604;48.652;9.194;2023-03-19T11:25:24;96132.19;;;18.54;40.87
69411;BME280;56604;48.652;9.194;2023-03-19T11:28:08;96125.94;;;18.13;41.04
69411;BME280;56604;48.652;9.194;2023-03-19T11:31:06;96134.28;;;18.07;41.86
69411;BME280;56604;48.652;9.194;2023-03-19T11:39:26;96123.22;;;18.72;40.39
69411;BME280;56604;48.652;9.194;2023-03-19T11:44:49;96117.75;;;18.32;41.71
69411;BME280;56604;48.652;9.194;2023-03-19T11:50:29;96120.28;;;18.74;40.24
69411;BME280;56604;48.652;9.194;2023-03-19T11:53:24;96116.75;;;18.64;39.91
69411;BME280;56604;48.652;9.194;2023-03-19T12:01:12;96114.13;;;18.87;41.38
69411;BME280;56604;48.652;9.194;2023-03-19T12:06:18;96103.13;;;18.66;40.07
69411;BME280;56604;48.652;9.194;2023-03-19T12:09:00;96102.59;;;19.09;40.65
69411;BME280;56604;48.652;9.194;2023-03-19T12:11:44;96104.66;;;19.12;39.77
69411;BME280;56604;48.652;9.194;2023-03-19T12:14:33;96099.00;;;19.05;40.62
69411;BME280;56604;48.652;9.194;2023-03-19T12:27:56;96102.28;;;17.98;42.23
69411;BME280;56604;48.652;9.194;2023-03-19T12:30:48;96101.84;;;17.82;42.60
69411;BME280;56604;48.652;9.194;2023-03-19T12:33:30;96096.81;;;17.81;43.40
69411;BME280;56604;48.652;9.194;2023-03-19T12:36:02;96100.91;;;18.37;43.54
69411;BME280;56604;48.652;9.194;2023-03-19T12:38:40;96097.50;;;17.72;43.24
69411;BME280;56604;48.652;9.194;2023-03-19T12:41:11;96091.81;;;18.83;42.53
69411;BME280;56604;48.652;9.194;2023-03-19T12:43:48;96091.19;;;19.17;41.02
69411;BME280;56604;48.652;9.194;2023-03-19T12:46:30;96084.25;;;18.99;40.40
69411;BME280;56604;48.652;9.194;2023-03-19T12:51:59;96096.41;;;18.46;42.31
69411;BME280;56604;48.652;9.194;2023-03-19T12:54:30;96088.97;;;18.12;41.70
69411;BME280;56604;48.652;9.194;2023-03-19T12:57:09;96091.13;;;18.10;42.52
69411;BME280;56604;48.652;9.194;2023-03-19T13:00:00;96090.63;;;17.85;42.99
69411;BME280;56604;48.652;9.194;2023-03-19T13:02:39;96088.63;;;17.91;43.27
69411;BME280;56604;48.652;9.194;2023-03-19T13:08:05;96082.63;;;18.22;43.32
69411;BME280;56604;48.652;9.194;2023-03-19T13:10:36;96079.91;;;18.35;42.68
69411;BME280;56604;48.652;9.194;2023-03-19T13:13:11;96083.13;;;17.87;42.84
69411;BME280;56604;48.652;9.194;2023-03-19T13:15:44;96080.25;;;18.20;42.54
69411;BME280;56604;48.652;9.194;2023-03-19T13:18:35;96078.16;;;18.76;41.46
69411;BME280;56604;48.652;9.194;2023-03-19T13:21:18;96084.19;;;18.23;42.46
69411;BME280;56604;48.652;9.194;2023-03-19T13:23:48;96076.78;;;17.97;43.07
69411;BME280;56604;48.652;9.194;2023-03-19T13:26:16;96084.31;;;18.40;42.66
69411;BME280;56604;48.652;9.194;2023-03-19T13:29:00;96081.44;;;17.91;42.71
69411;BME280;56604;48.652;9.194;2023-03-19T13:31:27;96078.59;;;17.74;43.52
69411;BME280;56604;48.652;9.194;2023-03-19T13:34:03;96074.09;;;17.33;43.76
69411;BME280;56604;48.652;9.194;2023-03-19T13:36:35;96071.06;;;17.26;44.63
69411;BME280;56604;48.652;9.194;2023-03-19T13:39:02;96072.34;;;17.28;44.54
69411;BME280;56604;48.652;9.194;2023-03-19T13:43:57;96071.94;;;17.35;44.57
69411;BME280;56604;48.652;9.194;2023-03-19T13:46:28;96071.84;;;17.40;44.02
69411;BME280;56604;48.652;9.194;2023-03-19T13:49:02;96080.91;;;17.39;44.50
69411;BME280;56604;48.652;9.194;2023-03-19T13:51:28;96080.38;;;17.79;45.37
69411;BME280;56604;48.652;9.194;2023-03-19T13:54:14;96077.75;;;17.51;44.36
69411;BME280;56604;48.652;9.194;2023-03-19T13:59:43;96086.06;;;17.72;44.08
69411;BME280;56604;48.652;9.194;2023-03-19T14:07:41;96072.63;;;16.67;45.20
69411;BME280;56604;48.652;9.194;2023-03-19T14:10:20;96088.06;;;16.64;45.90
69411;BME280;56604;48.652;9.194;2023-03-19T14:12:47;96082.56;;;16.42;46.18
69411;BME280;56604;48.652;9.194;2023-03-19T14:15:15;96075.44;;;16.24;46.76